sensor_id;sensor_type;location;lat;lon;timestamp;temperature;humidity
72865;DHT22;61000;48.120;11.548;2022-10-03T00:00:08;10.90;99.90
72865;DHT22;61000;48.120;11.548;2022-10-03T00:05:49;10.90;99.90
72865;DHT22;61000;48.120;11.548;2022-10-03T00:08:30;10.90;99.90
72865;DHT22;61000;48.120;11.548;2022-10-03T00:11:04;10.90;99.90
72865;DHT22;61000;48.120;11.548;2022-10-03T00:13:41;10.90;99.90
72865;DHT22;61000;48.120;11.548;2022-10-03T00:16:15;10.90;99.90
72865;DHT22;61000;48.120;11.548;2022-10-03T00:18:53;10.80;99.90
72865;DHT22;61000;48.120;11.548;2022-10-03T00:21:42;10.80;99.90
72865;DHT22;61000;48.120;11.548;2022-10-03T00:24:23;10.70;99.90
72865;DHT22;61000;48.120;11.548;2022-10-03T00:26:58;10.70;99.90
72865;DHT22;61000;48.120;11.548;2022-10-03T00:29:46;10.70;99.90
72865;DHT22;61000;48.120;11.548;2022-10-03T00:32:35;10.60;99.90
72865;DHT22;61000;48.120;11.548;2022-10-03T00:35:28;10.60;99.90
72865;DHT22;61000;48.120;11.548;2022-10-03T00:38:11;10.50;99.90
72865;DHT22;61000;48.120;11.548;2022-10-03T00:41:03;10.40;99.90
72865;DHT22;61000;48.120;11.548;2022-10-03T00:44:00;10.50;99.90
72865;DHT22;61000;48.120;11.548;2022-10-03T00:52:55;10.40;99.90
72865;DHT22;61000;48.120;11.548;2022-10-03T00:55:41;10.30;99.90
72865;DHT22;61000;48.120;11.548;2022-10-03T00:58:35;10.30;99.90
72865;DHT22;61000;48.120;11.548;2022-10-03T01:01:20;10.20;99.90
72865;DHT22;61000;48.120;11.548;2022-10-03T01:03:58;10.20;99.90
72865;DHT22;61000;48.120;11.548;2022-10-03T01:06:35;10.20;99.90
72865;DHT22;61000;48.120;11.548;2022-10-03T01:09:15;10.20;99.90
72865;DHT22;61000;48.120;11.548;2022-10-03T01:11:56;10.20;99.90
72865;DHT22;61000;48.120;11.548;2022-10-03T01:14:45;10.10;99.90
72865;DHT22;61000;48.120;11.548;2022-10-03T01:17:23;10.10;99.90
72865;DHT22;61000;48.120;11.548;2022-10-03T01:20:13;10.00;99.90
72865;DHT22;61000;48.120;11.548;2022-10-03T01:26:03;10.00;99.90
72865;DHT22;61000;48.120;11.548;2022-10-03T01:28:45;10.00;99.90
72865;DHT22;61000;48.120;11.548;2022-10-03T01:31:41;10.00;99.90
72865;DHT22;61000;48.120;11.548;2022-10-03T01:34:15;9.90;99.90
72865;DHT22;61000;48.120;11.548;2022-10-03T01:36:52;9.90;99.90
72865;DHT22;61000;48.120;11.548;2022-10-03T01:39:26;9.80;99.90
72865;DHT22;61000;48.120;11.548;2022-10-03T01:41:58;9.90;99.90
72865;DHT22;61000;48.120;11.548;2022-10-03T01:44:35;9.90;99.90
72865;DHT22;61000;48.120;11.548;2022-10-03T01:47:16;9.80;99.90
72865;DHT22;61000;48.120;11.548;2022-10-03T01:49:50;9.80;99.90
72865;DHT22;61000;48.120;11.548;2022-10-03T01:52:26;9.80;99.90
72865;DHT22;61000;48.120;11.548;2022-10-03T01:55:03;9.80;99.90
72865;DHT22;61000;48.120;11.548;2022-10-03T01:57:37;9.80;99.90
72865;DHT22;61000;48.120;11.548;2022-10-03T02:00:11;9.80;99.90
72865;DHT22;61000;48.120;11.548;2022-10-03T02:02:43;9.80;99.90
72865;DHT22;61000;48.120;11.548;2022-10-03T02:05:16;9.80;99.90
72865;DHT22;61000;48.120;11.548;2022-10-03T02:07:49;9.80;99.90
72865;DHT22;61000;48.120;11.548;2022-10-03T02:10:27;9.80;99.90
72865;DHT22;61000;48.120;11.548;2022-10-03T02:13:05;9.80;99.90
72865;DHT22;61000;48.120;11.548;2022-10-03T02:15:43;9.80;99.90
72865;DHT22;61000;48.120;11.548;2022-10-03T02:18:19;9.90;99.90
72865;DHT22;61000;48.120;11.548;2022-10-03T02:20:52;9.80;99.90
72865;DHT22;61000;48.120;11.548;2022-10-03T02:23:36;9.80;99.90
72865;DHT22;61000;48.120;11.548;2022-10-03T02:26:26;9.80;99.90
72865;DHT22;61000;48.120;11.548;2022-10-03T02:29:21;9.80;99.90
72865;DHT22;61000;48.120;11.548;2022-10-03T02:32:20;9.70;99.90
72865;DHT22;61000;48.120;11.548;2022-10-03T02:35:08;9.70;99.90
72865;DHT22;61000;48.120;11.548;2022-10-03T02:41:02;9.60;99.90
72865;DHT22;61000;48.120;11.548;2022-10-03T02:44:00;9.60;99.90
72865;DHT22;61000;48.120;11.548;2022-10-03T03:00:18;9.50;99.90
72865;DHT22;61000;48.120;11.548;2022-10-03T03:06:29;9.30;99.90
72865;DHT22;61000;48.120;11.548;2022-10-03T03:09:19;9.40;99.90
72865;DHT22;61000;48.120;11.548;2022-10-03T03:15:41;9.30;99.90
72865;DHT22;61000;48.120;11.548;2022-10-03T03:18:22;9.30;99.90
72865;DHT22;61000;48.120;11.548;2022-10-03T03:21:00;9.30;99.90
72865;DHT22;61000;48.120;11.548;2022-10-03T03:23:50;9.30;99.90
72865;DHT22;61000;48.120;11.548;2022-10-03T03:26:30;9.30;99.90
72865;DHT22;61000;48.120;11.548;2022-10-03T03:29:07;9.20;99.90
72865;DHT22;61000;48.120;11.548;2022-10-03T03:31:43;9.30;99.90
72865;DHT22;61000;48.120;11.548;2022-10-03T03:34:20;9.20;99.90
72865;DHT22;61000;48.120;11.548;2022-10-03T03:36:54;9.20;99.90
72865;DHT22;61000;48.120;11.548;2022-10-03T03:39:41;9.20;99.90
72865;DHT22;61000;48.120;11.548;2022-10-03T03:42:25;9.20;99.90
72865;DHT22;61000;48.120;11.548;2022-10-03T03:45:07;9.20;99.90
72865;DHT22;61000;48.120;11.548;2022-10-03T03:47:53;9.10;99.90
72865;DHT22;61000;48.120;11.548;2022-10-03T03:50:53;9.10;99.90
72865;DHT22;61000;48.120;11.548;2022-10-03T03:53:43;9.10;99.90
72865;DHT22;61000;48.120;11.548;2022-10-03T03:56:29;9.10;99.90
72865;DHT22;61000;48.120;11.548;2022-10-03T03:59:10;9.10;99.90
72865;DHT22;61000;48.120;11.548;2022-10-03T04:01:57;9.10;99.90
72865;DHT22;61000;48.120;11.548;2022-10-03T04:04:52;9.00;99.90
72865;DHT22;61000;48.120;11.548;2022-10-03T04:07:32;9.00;99.90
72865;DHT22;61000;48.120;11.548;2022-10-03T04:10:10;9.00;99.90
72865;DHT22;61000;48.120;11.548;2022-10-03T04:12:56;8.90;99.90
72865;DHT22;61000;48.120;11.548;2022-10-03T04:15:35;8.90;99.90
72865;DHT22;61000;48.120;11.548;2022-10-03T04:18:30;8.90;99.90
72865;DHT22;61000;48.120;11.548;2022-10-03T04:21:48;8.90;99.90
72865;DHT22;61000;48.120;11.548;2022-10-03T04:24:39;8.90;99.90
72865;DHT22;61000;48.120;11.548;2022-10-03T04:27:50;8.90;99.90
72865;DHT22;61000;48.120;11.548;2022-10-03T04:30:25;8.80;99.90
72865;DHT22;61000;48.120;11.548;2022-10-03T04:33:06;8.90;99.90
72865;DHT22;61000;48.120;11.548;2022-10-03T04:36:06;8.70;99.90
72865;DHT22;61000;48.120;11.548;2022-10-03T04:38:45;8.70;99.90
72865;DHT22;61000;48.120;11.548;2022-10-03T04:41:23;8.70;99.90
72865;DHT22;61000;48.120;11.548;2022-10-03T04:44:01;8.70;99.90
72865;DHT22;61000;48.120;11.548;2022-10-03T04:46:35;8.70;99.90
72865;DHT22;61000;48.120;11.548;2022-10-03T04:49:12;8.60;99.90
72865;DHT22;61000;48.120;11.548;2022-10-03T04:51:47;8.60;99.90
72865;DHT22;61000;48.120;11.548;2022-10-03T04:54:26;8.60;99.90
72865;DHT22;61000;48.120;11.548;2022-10-03T04:57:00;8.60;99.90
72865;DHT22;61000;48.120;11.548;2022-10-03T04:59:41;8.60;99.90
72865;DHT22;61000;48.120;11.548;2022-10-03T05:02:24;8.60;99.90
72865;DHT22;61000;48.120;11.548;2022-10-03T05:05:07;8.60;99.90
72865;DHT22;61000;48.120;11.548;2022-10-03T05:07:42;8.60;99.90
72865;DHT22;61000;48.120;11.548;2022-10-03T05:10:29;8.50;99.90
72865;DHT22;61000;48.120;11.548;2022-10-03T05:13:03;8.60;99.90
72865;DHT22;61000;48.120;11.548;2022-10-03T05:15:41;8.40;99.90
72865;DHT22;61000;48.120;11.548;2022-10-03T05:18:15;8.40;99.90
72865;DHT22;61000;48.120;11.548;2022-10-03T05:20:47;8.50;99.90
72865;DHT22;61000;48.120;11.548;2022-10-03T05:23:28;8.50;99.90
72865;DHT22;61000;48.120;11.548;2022-10-03T05:26:04;8.40;99.90
72865;DHT22;61000;48.120;11.548;2022-10-03T05:28:38;8.40;99.90
72865;DHT22;61000;48.120;11.548;2022-10-03T05:31:19;8.40;99.90
72865;DHT22;61000;48.120;11.548;2022-10-03T05:33:55;8.50;99.90
72865;DHT22;61000;48.120;11.548;2022-10-03T05:36:33;8.70;99.90
72865;DHT22;61000;48.120;11.548;2022-10-03T05:39:36;8.40;99.90
72865;DHT22;61000;48.120;11.548;2022-10-03T05:42:34;8.50;99.90
72865;DHT22;61000;48.120;11.548;2022-10-03T05:45:04;8.40;99.90
72865;DHT22;61000;48.120;11.548;2022-10-03T05:47:44;8.40;99.90
72865;DHT22;61000;48.120;11.548;2022-10-03T05:50:48;8.50;99.90
72865;DHT22;61000;48.120;11.548;2022-10-03T05:54:02;8.40;99.90
72865;DHT22;61000;48.120;11.548;2022-10-03T05:56:58;8.50;99.90
72865;DHT22;61000;48.120;11.548;2022-10-03T06:03:03;8.50;99.90
72865;DHT22;61000;48.120;11.548;2022-10-03T06:05:45;8.50;99.90
72865;DHT22;61000;48.120;11.548;2022-10-03T06:14:30;8.60;99.90
72865;DHT22;61000;48.120;11.548;2022-10-03T06:17:21;8.60;99.90
72865;DHT22;61000;48.120;11.548;2022-10-03T06:19:55;8.60;99.90
72865;DHT22;61000;48.120;11.548;2022-10-03T06:23:00;8.90;99.90
72865;DHT22;61000;48.120;11.548;2022-10-03T06:29:16;8.70;99.90
72865;DHT22;61000;48.120;11.548;2022-10-03T06:38:41;8.90;99.90
72865;DHT22;61000;48.120;11.548;2022-10-03T06:41:41;9.00;99.90
72865;DHT22;61000;48.120;11.548;2022-10-03T06:44:25;9.00;99.90
72865;DHT22;61000;48.120;11.548;2022-10-03T06:47:20;9.00;99.90
72865;DHT22;61000;48.120;11.548;2022-10-03T06:50:22;9.00;99.90
72865;DHT22;61000;48.120;11.548;2022-10-03T06:55:54;9.10;99.90
72865;DHT22;61000;48.120;11.548;2022-10-03T07:05:16;9.30;99.90
72865;DHT22;61000;48.120;11.548;2022-10-03T07:08:17;9.30;99.90
72865;DHT22;61000;48.120;11.548;2022-10-03T07:11:04;9.40;99.90
72865;DHT22;61000;48.120;11.548;2022-10-03T07:17:20;9.50;99.90
72865;DHT22;61000;48.120;11.548;2022-10-03T07:20:16;9.60;99.90
72865;DHT22;61000;48.120;11.548;2022-10-03T07:23:24;9.60;99.90
72865;DHT22;61000;48.120;11.548;2022-10-03T07:29:17;9.70;99.90
72865;DHT22;61000;48.120;11.548;2022-10-03T07:32:04;9.70;99.90
72865;DHT22;61000;48.120;11.548;2022-10-03T07:35:09;9.70;99.90
72865;DHT22;61000;48.120;11.548;2022-10-03T07:38:12;9.80;99.90
72865;DHT22;61000;48.120;11.548;2022-10-03T07:41:20;9.80;99.90
72865;DHT22;61000;48.120;11.548;2022-10-03T07:44:33;10.00;99.90
72865;DHT22;61000;48.120;11.548;2022-10-03T07:50:46;10.00;99.90
72865;DHT22;61000;48.120;11.548;2022-10-03T07:53:24;10.20;99.90
72865;DHT22;61000;48.120;11.548;2022-10-03T07:56:07;10.30;99.90
72865;DHT22;61000;48.120;11.548;2022-10-03T07:59:19;10.30;99.90
72865;DHT22;61000;48.120;11.548;2022-10-03T08:01:57;10.30;99.90
72865;DHT22;61000;48.120;11.548;2022-10-03T08:04:50;10.20;99.90
72865;DHT22;61000;48.120;11.548;2022-10-03T08:07:41;10.20;99.90
72865;DHT22;61000;48.120;11.548;2022-10-03T08:10:29;10.30;99.90
72865;DHT22;61000;48.120;11.548;2022-10-03T08:13:09;10.30;99.90
72865;DHT22;61000;48.120;11.548;2022-10-03T08:15:59;10.30;99.90
72865;DHT22;61000;48.120;11.548;2022-10-03T08:19:00;10.40;99.90
72865;DHT22;61000;48.120;11.548;2022-10-03T08:21:45;10.50;99.90
72865;DHT22;61000;48.120;11.548;2022-10-03T08:24:33;10.40;99.90
72865;DHT22;61000;48.120;11.548;2022-10-03T08:27:33;10.30;99.90
72865;DHT22;61000;48.120;11.548;2022-10-03T08:30:18;10.30;99.90
72865;DHT22;61000;48.120;11.548;2022-10-03T08:32:58;10.40;99.90
72865;DHT22;61000;48.120;11.548;2022-10-03T08:35:54;10.40;99.90
72865;DHT22;61000;48.120;11.548;2022-10-03T08:38:48;10.40;99.90
72865;DHT22;61000;48.120;11.548;2022-10-03T08:51:01;10.40;99.90
72865;DHT22;61000;48.120;11.548;2022-10-03T08:53:51;10.40;99.90
72865;DHT22;61000;48.120;11.548;2022-10-03T08:56:24;10.30;99.90
72865;DHT22;61000;48.120;11.548;2022-10-03T08:59:29;10.40;99.90
72865;DHT22;61000;48.120;11.548;2022-10-03T09:05:24;10.50;99.90
72865;DHT22;61000;48.120;11.548;2022-10-03T09:08:25;10.50;99.90
72865;DHT22;61000;48.120;11.548;2022-10-03T09:11:22;10.60;99.90
72865;DHT22;61000;48.120;11.548;2022-10-03T09:20:30;10.90;99.90
72865;DHT22;61000;48.120;11.548;2022-10-03T09:23:19;11.00;99.90
72865;DHT22;61000;48.120;11.548;2022-10-03T09:26:31;11.00;99.90
72865;DHT22;61000;48.120;11.548;2022-10-03T09:29:18;10.90;99.90
72865;DHT22;61000;48.120;11.548;2022-10-03T09:35:31;11.00;99.90
72865;DHT22;61000;48.120;11.548;2022-10-03T09:38:26;11.90;99.90
72865;DHT22;61000;48.120;11.548;2022-10-03T09:48:02;14.60;99.90
72865;DHT22;61000;48.120;11.548;2022-10-03T09:51:19;15.10;99.90
72865;DHT22;61000;48.120;11.548;2022-10-03T09:54:29;15.20;99.90
72865;DHT22;61000;48.120;11.548;2022-10-03T09:57:31;15.40;99.90
72865;DHT22;61000;48.120;11.548;2022-10-03T10:00:22;14.60;99.90
72865;DHT22;61000;48.120;11.548;2022-10-03T10:06:24;13.30;99.90
72865;DHT22;61000;48.120;11.548;2022-10-03T10:09:23;13.10;99.90
72865;DHT22;61000;48.120;11.548;2022-10-03T10:15:15;12.60;99.90
72865;DHT22;61000;48.120;11.548;2022-10-03T10:18:23;12.30;99.90
72865;DHT22;61000;48.120;11.548;2022-10-03T10:27:28;12.70;99.90
72865;DHT22;61000;48.120;11.548;2022-10-03T10:30:16;12.80;99.90
72865;DHT22;61000;48.120;11.548;2022-10-03T10:33:27;12.80;99.90
72865;DHT22;61000;48.120;11.548;2022-10-03T10:45:42;13.70;99.90
72865;DHT22;61000;48.120;11.548;2022-10-03T10:57:29;13.20;99.90
72865;DHT22;61000;48.120;11.548;2022-10-03T11:00:21;13.30;99.90
72865;DHT22;61000;48.120;11.548;2022-10-03T11:03:21;13.70;99.90
72865;DHT22;61000;48.120;11.548;2022-10-03T11:06:39;14.00;99.90
72865;DHT22;61000;48.120;11.548;2022-10-03T11:09:29;14.30;99.90
72865;DHT22;61000;48.120;11.548;2022-10-03T11:18:54;14.10;99.70
72865;DHT22;61000;48.120;11.548;2022-10-03T11:37:27;14.60;97.50
72865;DHT22;61000;48.120;11.548;2022-10-03T11:40:04;14.60;97.50
72865;DHT22;61000;48.120;11.548;2022-10-03T11:42:47;14.80;98.60
72865;DHT22;61000;48.120;11.548;2022-10-03T11:45:23;15.10;98.00
72865;DHT22;61000;48.120;11.548;2022-10-03T11:47:56;15.00;96.60
72865;DHT22;61000;48.120;11.548;2022-10-03T11:50:36;15.20;96.70
72865;DHT22;61000;48.120;11.548;2022-10-03T11:53:33;15.00;95.10
72865;DHT22;61000;48.120;11.548;2022-10-03T11:56:17;15.20;95.00
72865;DHT22;61000;48.120;11.548;2022-10-03T11:58:55;15.10;94.80
72865;DHT22;61000;48.120;11.548;2022-10-03T12:01:34;15.30;94.50
72865;DHT22;61000;48.120;11.548;2022-10-03T12:04:09;15.40;94.40
72865;DHT22;61000;48.120;11.548;2022-10-03T12:06:49;15.40;93.80
72865;DHT22;61000;48.120;11.548;2022-10-03T12:09:59;15.60;93.70
72865;DHT22;61000;48.120;11.548;2022-10-03T12:12:33;15.60;91.70
72865;DHT22;61000;48.120;11.548;2022-10-03T12:15:20;15.40;91.80
72865;DHT22;61000;48.120;11.548;2022-10-03T12:17:57;15.30;92.30
72865;DHT22;61000;48.120;11.548;2022-10-03T12:20:35;15.40;92.80
72865;DHT22;61000;48.120;11.548;2022-10-03T12:23:16;15.40;92.10
72865;DHT22;61000;48.120;11.548;2022-10-03T12:25:46;15.60;92.00
72865;DHT22;61000;48.120;11.548;2022-10-03T12:28:18;15.90;91.40
72865;DHT22;61000;48.120;11.548;2022-10-03T12:30:53;16.00;91.30
72865;DHT22;61000;48.120;11.548;2022-10-03T12:33:32;16.00;91.40
72865;DHT22;61000;48.120;11.548;2022-10-03T12:36:09;15.90;90.60
72865;DHT22;61000;48.120;11.548;2022-10-03T12:38:58;15.40;90.40
72865;DHT22;61000;48.120;11.548;2022-10-03T12:41:55;15.60;90.70
72865;DHT22;61000;48.120;11.548;2022-10-03T12:44:32;16.00;89.80
72865;DHT22;61000;48.120;11.548;2022-10-03T12:47:17;16.30;88.50
72865;DHT22;61000;48.120;11.548;2022-10-03T12:49:52;16.70;88.00
72865;DHT22;61000;48.120;11.548;2022-10-03T12:52:24;16.80;83.70
72865;DHT22;61000;48.120;11.548;2022-10-03T12:55:00;17.00;84.10
72865;DHT22;61000;48.120;11.548;2022-10-03T12:57:48;16.60;83.50
72865;DHT22;61000;48.120;11.548;2022-10-03T13:00:22;16.20;83.10
72865;DHT22;61000;48.120;11.548;2022-10-03T13:03:14;15.90;85.70
72865;DHT22;61000;48.120;11.548;2022-10-03T13:08:42;15.60;88.30
72865;DHT22;61000;48.120;11.548;2022-10-03T13:11:27;15.30;88.50
72865;DHT22;61000;48.120;11.548;2022-10-03T13:14:09;15.20;89.60
72865;DHT22;61000;48.120;11.548;2022-10-03T13:16:47;15.20;90.60
72865;DHT22;61000;48.120;11.548;2022-10-03T13:19:17;15.10;91.20
72865;DHT22;61000;48.120;11.548;2022-10-03T13:21:55;15.20;92.20
72865;DHT22;61000;48.120;11.548;2022-10-03T13:24:32;15.20;91.90
72865;DHT22;61000;48.120;11.548;2022-10-03T13:27:15;15.20;92.10
72865;DHT22;61000;48.120;11.548;2022-10-03T13:29:46;15.10;92.20
72865;DHT22;61000;48.120;11.548;2022-10-03T13:32:22;15.20;92.60
72865;DHT22;61000;48.120;11.548;2022-10-03T13:35:05;15.10;92.00
72865;DHT22;61000;48.120;11.548;2022-10-03T13:41:23;15.00;92.30
72865;DHT22;61000;48.120;11.548;2022-10-03T13:43:57;15.10;94.30
72865;DHT22;61000;48.120;11.548;2022-10-03T13:46:30;15.00;96.10
72865;DHT22;61000;48.120;11.548;2022-10-03T13:49:05;14.80;97.70
72865;DHT22;61000;48.120;11.548;2022-10-03T13:51:44;15.00;99.20
72865;DHT22;61000;48.120;11.548;2022-10-03T13:54:16;15.00;98.00
72865;DHT22;61000;48.120;11.548;2022-10-03T13:56:53;15.10;98.20
72865;DHT22;61000;48.120;11.548;2022-10-03T13:59:38;15.30;98.60
72865;DHT22;61000;48.120;11.548;2022-10-03T14:08:41;15.70;95.90
72865;DHT22;61000;48.120;11.548;2022-10-03T14:11:22;15.50;97.10
72865;DHT22;61000;48.120;11.548;2022-10-03T14:14:09;15.40;96.00
72865;DHT22;61000;48.120;11.548;2022-10-03T14:16:43;15.10;95.30
72865;DHT22;61000;48.120;11.548;2022-10-03T14:19:18;15.70;95.70
72865;DHT22;61000;48.120;11.548;2022-10-03T14:21:59;15.70;93.40
72865;DHT22;61000;48.120;11.548;2022-10-03T14:24:44;15.70;92.80
72865;DHT22;61000;48.120;11.548;2022-10-03T14:27:33;15.70;93.80
72865;DHT22;61000;48.120;11.548;2022-10-03T14:30:05;16.00;94.10
72865;DHT22;61000;48.120;11.548;2022-10-03T14:32:41;15.60;94.00
72865;DHT22;61000;48.120;11.548;2022-10-03T14:35:20;15.50;92.40
72865;DHT22;61000;48.120;11.548;2022-10-03T14:37:56;15.20;92.40
72865;DHT22;61000;48.120;11.548;2022-10-03T14:40:28;15.20;93.20
72865;DHT22;61000;48.120;11.548;2022-10-03T14:43:21;15.10;93.90
72865;DHT22;61000;48.120;11.548;2022-10-03T14:45:54;15.00;93.30
72865;DHT22;61000;48.120;11.548;2022-10-03T14:48:26;15.00;94.80
72865;DHT22;61000;48.120;11.548;2022-10-03T14:51:00;15.20;94.50
72865;DHT22;61000;48.120;11.548;2022-10-03T14:53:32;15.00;92.80
72865;DHT22;61000;48.120;11.548;2022-10-03T14:56:02;15.00;93.60
72865;DHT22;61000;48.120;11.548;2022-10-03T14:58:34;15.10;96.20
72865;DHT22;61000;48.120;11.548;2022-10-03T15:01:06;15.00;94.60
72865;DHT22;61000;48.120;11.548;2022-10-03T15:03:41;15.00;94.10
72865;DHT22;61000;48.120;11.548;2022-10-03T15:09:32;14.70;93.70
72865;DHT22;61000;48.120;11.548;2022-10-03T15:12:31;14.60;95.60
72865;DHT22;61000;48.120;11.548;2022-10-03T15:15:12;14.70;97.50
72865;DHT22;61000;48.120;11.548;2022-10-03T15:17:44;14.70;97.90
72865;DHT22;61000;48.120;11.548;2022-10-03T15:20:12;14.60;98.60
72865;DHT22;61000;48.120;11.548;2022-10-03T15:22:47;14.50;98.70
72865;DHT22;61000;48.120;11.548;2022-10-03T15:25:19;14.40;99.90
72865;DHT22;61000;48.120;11.548;2022-10-03T15:27:49;14.50;99.90
72865;DHT22;61000;48.120;11.548;2022-10-03T15:30:23;14.50;99.90
72865;DHT22;61000;48.120;11.548;2022-10-03T15:32:52;14.50;99.90
72865;DHT22;61000;48.120;11.548;2022-10-03T15:35:23;14.30;96.10
72865;DHT22;61000;48.120;11.548;2022-10-03T15:37:52;14.40;96.40
72865;DHT22;61000;48.120;11.548;2022-10-03T15:40:30;14.40;96.40
72865;DHT22;61000;48.120;11.548;2022-10-03T15:43:04;14.40;99.90
72865;DHT22;61000;48.120;11.548;2022-10-03T15:45:34;14.30;99.90
72865;DHT22;61000;48.120;11.548;2022-10-03T15:48:04;14.20;99.90
72865;DHT22;61000;48.120;11.548;2022-10-03T15:50:35;14.20;99.90
72865;DHT22;61000;48.120;11.548;2022-10-03T15:53:08;13.90;99.90
72865;DHT22;61000;48.120;11.548;2022-10-03T15:56:02;14.10;99.90
72865;DHT22;61000;48.120;11.548;2022-10-03T15:58:48;14.10;99.90
72865;DHT22;61000;48.120;11.548;2022-10-03T16:01:18;14.00;99.90
72865;DHT22;61000;48.120;11.548;2022-10-03T16:03:49;14.00;99.90
72865;DHT22;61000;48.120;11.548;2022-10-03T16:06:19;13.90;99.90
72865;DHT22;61000;48.120;11.548;2022-10-03T16:08:56;13.10;99.90
72865;DHT22;61000;48.120;11.548;2022-10-03T16:11:30;13.70;99.90
72865;DHT22;61000;48.120;11.548;2022-10-03T16:14:11;13.60;99.90
72865;DHT22;61000;48.120;11.548;2022-10-03T16:16:45;13.60;99.90
72865;DHT22;61000;48.120;11.548;2022-10-03T16:19:22;13.50;99.90
72865;DHT22;61000;48.120;11.548;2022-10-03T16:21:55;13.50;99.90
72865;DHT22;61000;48.120;11.548;2022-10-03T16:24:31;13.40;99.90
72865;DHT22;61000;48.120;11.548;2022-10-03T16:27:07;13.40;98.40
72865;DHT22;61000;48.120;11.548;2022-10-03T16:29:42;13.40;99.90
72865;DHT22;61000;48.120;11.548;2022-10-03T16:32:17;13.30;99.90
72865;DHT22;61000;48.120;11.548;2022-10-03T16:34:46;13.30;99.90
72865;DHT22;61000;48.120;11.548;2022-10-03T16:37:17;13.30;99.90
72865;DHT22;61000;48.120;11.548;2022-10-03T16:39:51;13.30;99.90
72865;DHT22;61000;48.120;11.548;2022-10-03T16:42:22;13.10;99.90
72865;DHT22;61000;48.120;11.548;2022-10-03T16:44:51;13.00;99.90
72865;DHT22;61000;48.120;11.548;2022-10-03T16:47:29;13.00;99.50
72865;DHT22;61000;48.120;11.548;2022-10-03T16:49:58;12.90;98.50
72865;DHT22;61000;48.120;11.548;2022-10-03T16:52:46;12.70;96.30
72865;DHT22;61000;48.120;11.548;2022-10-03T16:55:17;12.70;96.40
72865;DHT22;61000;48.120;11.548;2022-10-03T16:57:50;12.60;96.50
72865;DHT22;61000;48.120;11.548;2022-10-03T17:00:23;12.60;96.20
72865;DHT22;61000;48.120;11.548;2022-10-03T17:02:55;12.60;96.20
72865;DHT22;61000;48.120;11.548;2022-10-03T17:05:22;12.50;96.00
72865;DHT22;61000;48.120;11.548;2022-10-03T17:07:52;12.50;96.20
72865;DHT22;61000;48.120;11.548;2022-10-03T17:10:34;12.40;96.30
72865;DHT22;61000;48.120;11.548;2022-10-03T17:13:10;12.30;96.40
72865;DHT22;61000;48.120;11.548;2022-10-03T17:15:45;12.30;96.60
72865;DHT22;61000;48.120;11.548;2022-10-03T17:18:26;12.30;96.50
72865;DHT22;61000;48.120;11.548;2022-10-03T17:20:55;12.20;96.70
72865;DHT22;61000;48.120;11.548;2022-10-03T17:23:30;12.20;97.10
72865;DHT22;61000;48.120;11.548;2022-10-03T17:26:06;12.20;97.10
72865;DHT22;61000;48.120;11.548;2022-10-03T17:28:43;12.10;97.10
72865;DHT22;61000;48.120;11.548;2022-10-03T17:31:26;12.10;97.10
72865;DHT22;61000;48.120;11.548;2022-10-03T17:34:03;12.10;97.10
72865;DHT22;61000;48.120;11.548;2022-10-03T17:37:13;12.00;97.10
72865;DHT22;61000;48.120;11.548;2022-10-03T17:39:47;12.00;97.60
72865;DHT22;61000;48.120;11.548;2022-10-03T17:42:34;11.90;98.50
72865;DHT22;61000;48.120;11.548;2022-10-03T17:45:16;11.90;98.50
72865;DHT22;61000;48.120;11.548;2022-10-03T17:47:54;11.80;98.90
72865;DHT22;61000;48.120;11.548;2022-10-03T17:50:26;11.70;99.10
72865;DHT22;61000;48.120;11.548;2022-10-03T17:52:56;11.80;99.80
72865;DHT22;61000;48.120;11.548;2022-10-03T17:55:29;11.60;99.90
72865;DHT22;61000;48.120;11.548;2022-10-03T17:57:58;11.60;99.90
72865;DHT22;61000;48.120;11.548;2022-10-03T18:00:34;11.50;99.90
72865;DHT22;61000;48.120;11.548;2022-10-03T18:03:06;11.50;99.90
72865;DHT22;61000;48.120;11.548;2022-10-03T18:05:38;11.40;99.90
72865;DHT22;61000;48.120;11.548;2022-10-03T18:08:12;11.40;99.90
72865;DHT22;61000;48.120;11.548;2022-10-03T18:10:45;11.30;99.90
72865;DHT22;61000;48.120;11.548;2022-10-03T18:13:15;11.30;99.90
72865;DHT22;61000;48.120;11.548;2022-10-03T18:19:14;11.20;99.90
72865;DHT22;61000;48.120;11.548;2022-10-03T18:21:59;11.20;99.90
72865;DHT22;61000;48.120;11.548;2022-10-03T18:24:46;11.20;99.90
72865;DHT22;61000;48.120;11.548;2022-10-03T18:27:38;11.10;99.90
72865;DHT22;61000;48.120;11.548;2022-10-03T18:30:14;11.10;99.90
72865;DHT22;61000;48.120;11.548;2022-10-03T18:32:44;11.00;99.90
72865;DHT22;61000;48.120;11.548;2022-10-03T18:35:15;11.00;99.90
72865;DHT22;61000;48.120;11.548;2022-10-03T18:38:00;11.00;99.90
72865;DHT22;61000;48.120;11.548;2022-10-03T18:40:31;11.00;99.90
72865;DHT22;61000;48.120;11.548;2022-10-03T18:43:00;10.90;99.90
72865;DHT22;61000;48.120;11.548;2022-10-03T18:45:34;10.90;99.90
72865;DHT22;61000;48.120;11.548;2022-10-03T18:48:09;10.80;99.90
72865;DHT22;61000;48.120;11.548;2022-10-03T18:50:47;10.80;99.90
72865;DHT22;61000;48.120;11.548;2022-10-03T18:53:19;10.80;99.90
72865;DHT22;61000;48.120;11.548;2022-10-03T18:55:54;10.80;99.90
72865;DHT22;61000;48.120;11.548;2022-10-03T18:58:25;10.80;99.90
72865;DHT22;61000;48.120;11.548;2022-10-03T19:00:58;10.70;99.90
72865;DHT22;61000;48.120;11.548;2022-10-03T19:03:33;10.60;99.90
72865;DHT22;61000;48.120;11.548;2022-10-03T19:06:04;10.60;99.90
72865;DHT22;61000;48.120;11.548;2022-10-03T19:08:36;10.50;99.90
72865;DHT22;61000;48.120;11.548;2022-10-03T19:11:16;10.50;99.90
72865;DHT22;61000;48.120;11.548;2022-10-03T19:13:55;10.50;99.90
72865;DHT22;61000;48.120;11.548;2022-10-03T19:16:39;10.40;99.90
72865;DHT22;61000;48.120;11.548;2022-10-03T19:19:18;10.40;99.90
72865;DHT22;61000;48.120;11.548;2022-10-03T19:21:48;10.40;99.90
72865;DHT22;61000;48.120;11.548;2022-10-03T19:24:19;10.30;99.90
72865;DHT22;61000;48.120;11.548;2022-10-03T19:26:49;10.20;99.90
72865;DHT22;61000;48.120;11.548;2022-10-03T19:29:21;10.10;99.90
72865;DHT22;61000;48.120;11.548;2022-10-03T19:31:58;10.10;99.90
72865;DHT22;61000;48.120;11.548;2022-10-03T19:34:35;10.10;99.90
72865;DHT22;61000;48.120;11.548;2022-10-03T19:37:06;10.00;99.90
72865;DHT22;61000;48.120;11.548;2022-10-03T19:39:33;10.00;99.90
72865;DHT22;61000;48.120;11.548;2022-10-03T19:42:21;9.90;99.90
72865;DHT22;61000;48.120;11.548;2022-10-03T19:44:54;9.90;99.90
72865;DHT22;61000;48.120;11.548;2022-10-03T19:47:26;9.90;99.90